sensor_id;sensor_type;location;lat;lon;timestamp;pressure;altitude;pressure_sealevel;temperature;humidity
13869;BME280;7004;48.206;16.402;2023-04-21T00:01:03;99704.88;;;9.95;97.27
13869;BME280;7004;48.206;16.402;2023-04-21T00:03:34;99698.16;;;10.18;97.60
13869;BME280;7004;48.206;16.402;2023-04-21T00:06:04;99700.78;;;10.03;97.39
13869;BME280;7004;48.206;16.402;2023-04-21T00:08:35;99703.03;;;9.67;98.33
13869;BME280;7004;48.206;16.402;2023-04-21T00:11:07;99718.59;;;9.27;100.00
13869;BME280;7004;48.206;16.402;2023-04-21T00:13:36;99713.66;;;9.51;100.00
13869;BME280;7004;48.206;16.402;2023-04-21T00:16:04;99702.69;;;9.73;100.00
13869;BME280;7004;48.206;16.402;2023-04-21T00:18:31;99697.88;;;9.79;99.71
13869;BME280;7004;48.206;16.402;2023-04-21T00:20:57;99696.94;;;9.95;99.75
13869;BME280;7004;48.206;16.402;2023-04-21T00:23:23;99692.88;;;9.89;99.81
13869;BME280;7004;48.206;16.402;2023-04-21T00:25:50;99689.00;;;9.66;100.00
13869;BME280;7004;48.206;16.402;2023-04-21T00:28:17;99686.78;;;9.89;100.00
13869;BME280;7004;48.206;16.402;2023-04-21T00:30:43;99689.94;;;9.79;100.00
13869;BME280;7004;48.206;16.402;2023-04-21T00:33:09;99691.75;;;9.79;100.00
13869;BME280;7004;48.206;16.402;2023-04-21T00:35:36;99692.78;;;9.76;99.37
13869;BME280;7004;48.206;16.402;2023-04-21T00:38:02;99692.69;;;9.92;98.68
13869;BME280;7004;48.206;16.402;2023-04-21T00:40:28;99693.94;;;9.87;98.12
13869;BME280;7004;48.206;16.402;2023-04-21T00:42:54;99690.22;;;9.75;98.54
13869;BME280;7004;48.206;16.402;2023-04-21T00:45:20;99689.09;;;9.93;97.69
13869;BME280;7004;48.206;16.402;2023-04-21T00:47:46;99691.84;;;9.63;99.16
13869;BME280;7004;48.206;16.402;2023-04-21T00:50:12;99694.25;;;9.52;99.34
13869;BME280;7004;48.206;16.402;2023-04-21T00:52:40;99691.84;;;9.63;98.82
13869;BME280;7004;48.206;16.402;2023-04-21T00:55:08;99697.13;;;9.77;97.55
13869;BME280;7004;48.206;16.402;2023-04-21T00:57:36;99699.53;;;9.52;99.41
13869;BME280;7004;48.206;16.402;2023-04-21T01:00:08;99689.88;;;9.81;97.76
13869;BME280;7004;48.206;16.402;2023-04-21T01:02:37;99693.81;;;9.74;98.00
13869;BME280;7004;48.206;16.402;2023-04-21T01:05:05;99696.00;;;9.81;98.07
13869;BME280;7004;48.206;16.402;2023-04-21T01:07:34;99698.59;;;9.67;99.49
13869;BME280;7004;48.206;16.402;2023-04-21T01:10:02;99695.97;;;9.67;99.64
13869;BME280;7004;48.206;16.402;2023-04-21T01:12:29;99697.84;;;9.51;99.56
13869;BME280;7004;48.206;16.402;2023-04-21T01:14:55;99695.19;;;9.21;100.00
13869;BME280;7004;48.206;16.402;2023-04-21T01:17:21;99695.16;;;9.36;99.92
13869;BME280;7004;48.206;16.402;2023-04-21T01:19:48;99696.72;;;9.55;98.83
13869;BME280;7004;48.206;16.402;2023-04-21T01:22:15;99696.59;;;9.42;100.00
13869;BME280;7004;48.206;16.402;2023-04-21T01:24:45;99689.38;;;9.60;100.00
13869;BME280;7004;48.206;16.402;2023-04-21T01:27:18;99696.34;;;9.75;99.99
13869;BME280;7004;48.206;16.402;2023-04-21T01:29:48;99692.41;;;9.82;98.79
13869;BME280;7004;48.206;16.402;2023-04-21T01:32:22;99688.81;;;9.69;99.19
13869;BME280;7004;48.206;16.402;2023-04-21T01:34:49;99698.91;;;9.02;100.00
13869;BME280;7004;48.206;16.402;2023-04-21T01:37:22;99715.19;;;8.63;100.00
13869;BME280;7004;48.206;16.402;2023-04-21T01:39:52;99686.75;;;9.00;100.00
13869;BME280;7004;48.206;16.402;2023-04-21T01:42:22;99699.63;;;8.90;100.00
13869;BME280;7004;48.206;16.402;2023-04-21T01:44:48;99699.31;;;9.10;100.00
13869;BME280;7004;48.206;16.402;2023-04-21T01:47:16;99700.94;;;8.97;100.00
13869;BME280;7004;48.206;16.402;2023-04-21T01:49:43;99696.97;;;8.74;100.00
13869;BME280;7004;48.206;16.402;2023-04-21T01:52:09;99705.91;;;8.71;100.00
13869;BME280;7004;48.206;16.402;2023-04-21T01:54:35;99697.41;;;8.98;100.00
13869;BME280;7004;48.206;16.402;2023-04-21T01:57:03;99693.59;;;9.18;100.00
13869;BME280;7004;48.206;16.402;2023-04-21T01:59:30;99684.56;;;9.22;100.00
13869;BME280;7004;48.206;16.402;2023-04-21T02:01:59;99692.25;;;9.11;100.00
13869;BME280;7004;48.206;16.402;2023-04-21T02:04:25;99689.72;;;9.09;100.00
13869;BME280;7004;48.206;16.402;2023-04-21T02:06:51;99693.16;;;8.80;100.00
13869;BME280;7004;48.206;16.402;2023-04-21T02:09:17;99692.72;;;9.03;100.00
13869;BME280;7004;48.206;16.402;2023-04-21T02:11:43;99684.31;;;9.27;100.00
13869;BME280;7004;48.206;16.402;2023-04-21T02:14:09;99682.69;;;9.24;100.00
13869;BME280;7004;48.206;16.402;2023-04-21T02:16:36;99690.16;;;9.02;100.00
13869;BME280;7004;48.206;16.402;2023-04-21T02:19:02;99689.59;;;8.81;100.00
13869;BME280;7004;48.206;16.402;2023-04-21T02:21:29;99699.56;;;8.60;100.00
13869;BME280;7004;48.206;16.402;2023-04-21T02:23:56;99689.03;;;9.06;100.00
13869;BME280;7004;48.206;16.402;2023-04-21T02:26:22;99686.44;;;9.20;100.00
13869;BME280;7004;48.206;16.402;2023-04-21T02:28:49;99694.84;;;8.81;100.00
13869;BME280;7004;48.206;16.402;2023-04-21T02:31:16;99698.19;;;8.52;100.00
13869;BME280;7004;48.206;16.402;2023-04-21T02:33:44;99687.59;;;9.30;100.00
13869;BME280;7004;48.206;16.402;2023-04-21T02:36:10;99685.09;;;9.43;100.00
13869;BME280;7004;48.206;16.402;2023-04-21T02:38:37;99690.25;;;9.30;100.00
13869;BME280;7004;48.206;16.402;2023-04-21T02:41:03;99680.19;;;9.51;100.00
13869;BME280;7004;48.206;16.402;2023-04-21T02:43:29;99681.34;;;9.47;100.00
13869;BME280;7004;48.206;16.402;2023-04-21T02:45:55;99681.28;;;9.63;100.00
13869;BME280;7004;48.206;16.402;2023-04-21T02:48:21;99687.34;;;9.35;100.00
13869;BME280;7004;48.206;16.402;2023-04-21T02:50:52;99688.47;;;9.01;100.00
13869;BME280;7004;48.206;16.402;2023-04-21T02:53:19;99690.16;;;9.02;100.00
13869;BME280;7004;48.206;16.402;2023-04-21T02:55:45;99687.00;;;9.11;100.00
13869;BME280;7004;48.206;16.402;2023-04-21T02:58:11;99684.25;;;9.12;100.00
13869;BME280;7004;48.206;16.402;2023-04-21T03:00:37;99689.66;;;8.79;100.00
13869;BME280;7004;48.206;16.402;2023-04-21T03:03:09;99694.78;;;8.82;100.00
13869;BME280;7004;48.206;16.402;2023-04-21T03:05:38;99694.31;;;9.06;100.00
13869;BME280;7004;48.206;16.402;2023-04-21T03:08:08;99701.16;;;8.78;100.00
13869;BME280;7004;48.206;16.402;2023-04-21T03:10:36;99699.47;;;8.77;100.00
13869;BME280;7004;48.206;16.402;2023-04-21T03:13:04;99701.16;;;8.78;100.00
13869;BME280;7004;48.206;16.402;2023-04-21T03:15:30;99696.78;;;9.09;100.00
13869;BME280;7004;48.206;16.402;2023-04-21T03:17:56;99693.56;;;9.04;100.00
13869;BME280;7004;48.206;16.402;2023-04-21T03:20:23;99699.22;;;9.12;100.00
13869;BME280;7004;48.206;16.402;2023-04-21T03:22:52;99697.25;;;9.15;100.00
13869;BME280;7004;48.206;16.402;2023-04-21T03:25:18;99699.38;;;9.25;100.00
13869;BME280;7004;48.206;16.402;2023-04-21T03:27:45;99699.34;;;8.94;100.00
13869;BME280;7004;48.206;16.402;2023-04-21T03:30:11;99707.84;;;8.84;100.00
13869;BME280;7004;48.206;16.402;2023-04-21T03:32:37;99697.94;;;8.73;100.00
13869;BME280;7004;48.206;16.402;2023-04-21T03:35:04;99702.69;;;8.50;100.00
13869;BME280;7004;48.206;16.402;2023-04-21T03:37:31;99701.34;;;8.43;100.00
13869;BME280;7004;48.206;16.402;2023-04-21T03:39:57;99714.28;;;8.30;100.00
13869;BME280;7004;48.206;16.402;2023-04-21T03:42:23;99710.16;;;8.42;100.00
13869;BME280;7004;48.206;16.402;2023-04-21T03:44:50;99713.75;;;8.41;100.00
13869;BME280;7004;48.206;16.402;2023-04-21T03:47:17;99701.53;;;8.56;100.00
13869;BME280;7004;48.206;16.402;2023-04-21T03:49:43;99699.03;;;8.53;100.00
13869;BME280;7004;48.206;16.402;2023-04-21T03:52:09;99697.34;;;8.68;100.00
13869;BME280;7004;48.206;16.402;2023-04-21T03:54:36;99697.09;;;8.72;100.00
13869;BME280;7004;48.206;16.402;2023-04-21T03:57:02;99697.16;;;8.71;100.00
13869;BME280;7004;48.206;16.402;2023-04-21T03:59:28;99702.34;;;8.72;100.00
13869;BME280;7004;48.206;16.402;2023-04-21T04:01:55;99709.56;;;8.85;100.00
13869;BME280;7004;48.206;16.402;2023-04-21T04:04:21;99707.22;;;8.64;100.00
13869;BME280;7004;48.206;16.402;2023-04-21T04:06:47;99720.16;;;8.36;100.00
13869;BME280;7004;48.206;16.402;2023-04-21T04:09:13;99718.59;;;7.82;100.00
13869;BME280;7004;48.206;16.402;2023-04-21T04:11:39;99723.44;;;8.07;100.00
13869;BME280;7004;48.206;16.402;2023-04-21T04:14:05;99719.63;;;8.13;100.00
13869;BME280;7004;48.206;16.402;2023-04-21T04:16:34;99717.63;;;8.01;100.00
13869;BME280;7004;48.206;16.402;2023-04-21T04:19:00;99719.31;;;7.69;100.00
13869;BME280;7004;48.206;16.402;2023-04-21T04:21:26;99728.16;;;7.50;100.00
13869;BME280;7004;48.206;16.402;2023-04-21T04:23:53;99725.09;;;7.75;100.00
13869;BME280;7004;48.206;16.402;2023-04-21T04:26:19;99725.88;;;8.10;100.00
13869;BME280;7004;48.206;16.402;2023-04-21T04:28:47;99734.94;;;8.38;100.00
13869;BME280;7004;48.206;16.402;2023-04-21T04:31:13;99733.69;;;8.45;100.00
13869;BME280;7004;48.206;16.402;2023-04-21T04:33:40;99733.44;;;8.50;100.00
13869;BME280;7004;48.206;16.402;2023-04-21T04:36:09;99742.38;;;8.47;100.00
13869;BME280;7004;48.206;16.402;2023-04-21T04:38:39;99744.34;;;8.26;100.00
13869;BME280;7004;48.206;16.402;2023-04-21T04:41:06;99743.25;;;8.15;100.00
13869;BME280;7004;48.206;16.402;2023-04-21T04:43:34;99737.94;;;8.48;100.00
13869;BME280;7004;48.206;16.402;2023-04-21T04:46:06;99740.03;;;8.59;100.00
13869;BME280;7004;48.206;16.402;2023-04-21T04:48:34;99730.75;;;8.67;100.00
13869;BME280;7004;48.206;16.402;2023-04-21T04:51:00;99736.59;;;8.88;100.00
13869;BME280;7004;48.206;16.402;2023-04-21T04:53:29;99739.03;;;9.07;100.00
13869;BME280;7004;48.206;16.402;2023-04-21T04:55:55;99733.44;;;9.13;100.00
13869;BME280;7004;48.206;16.402;2023-04-21T04:58:23;99731.97;;;9.08;100.00
13869;BME280;7004;48.206;16.402;2023-04-21T05:00:49;99739.41;;;9.01;100.00
13869;BME280;7004;48.206;16.402;2023-04-21T05:03:16;99736.66;;;9.18;100.00
13869;BME280;7004;48.206;16.402;2023-04-21T05:05:42;99737.31;;;9.22;100.00
13869;BME280;7004;48.206;16.402;2023-04-21T05:08:10;99729.34;;;9.24;100.00
13869;BME280;7004;48.206;16.402;2023-04-21T05:10:37;99740.22;;;9.17;100.00
13869;BME280;7004;48.206;16.402;2023-04-21T05:13:03;99743.75;;;9.32;100.00
13869;BME280;7004;48.206;16.402;2023-04-21T05:15:29;99747.66;;;9.41;100.00
13869;BME280;7004;48.206;16.402;2023-04-21T05:17:56;99745.13;;;9.39;100.00
13869;BME280;7004;48.206;16.402;2023-04-21T05:20:22;99750.75;;;9.63;100.00
13869;BME280;7004;48.206;16.402;2023-04-21T05:22:48;99756.41;;;9.72;100.00
13869;BME280;7004;48.206;16.402;2023-04-21T05:25:15;99752.53;;;9.77;100.00
13869;BME280;7004;48.206;16.402;2023-04-21T05:27:42;99756.53;;;9.84;100.00
13869;BME280;7004;48.206;16.402;2023-04-21T05:30:08;99753.81;;;9.56;100.00
13869;BME280;7004;48.206;16.402;2023-04-21T05:32:35;99752.50;;;10.07;100.00
13869;BME280;7004;48.206;16.402;2023-04-21T05:35:02;99755.44;;;10.17;100.00
13869;BME280;7004;48.206;16.402;2023-04-21T05:37:28;99746.47;;;10.20;100.00
13869;BME280;7004;48.206;16.402;2023-04-21T05:39:54;99754.47;;;10.18;100.00
13869;BME280;7004;48.206;16.402;2023-04-21T05:42:20;99758.22;;;10.30;100.00
13869;BME280;7004;48.206;16.402;2023-04-21T05:44:46;99754.59;;;10.31;100.00
13869;BME280;7004;48.206;16.402;2023-04-21T05:47:13;99753.28;;;10.38;100.00
13869;BME280;7004;48.206;16.402;2023-04-21T05:49:39;99759.94;;;10.73;100.00
13869;BME280;7004;48.206;16.402;2023-04-21T05:52:08;99766.28;;;10.70;100.00
13869;BME280;7004;48.206;16.402;2023-04-21T05:54:35;99766.06;;;10.87;98.88
13869;BME280;7004;48.206;16.402;2023-04-21T05:57:01;99761.75;;;10.99;97.51
13869;BME280;7004;48.206;16.402;2023-04-21T05:59:27;99766.41;;;11.23;96.75
13869;BME280;7004;48.206;16.402;2023-04-21T06:01:53;99767.66;;;11.17;98.92
13869;BME280;7004;48.206;16.402;2023-04-21T06:04:19;99770.00;;;11.22;99.42
13869;BME280;7004;48.206;16.402;2023-04-21T06:06:46;99771.81;;;11.21;97.43
13869;BME280;7004;48.206;16.402;2023-04-21T06:09:12;99771.50;;;11.53;96.10
13869;BME280;7004;48.206;16.402;2023-04-21T06:11:40;99762.91;;;11.49;94.02
13869;BME280;7004;48.206;16.402;2023-04-21T06:14:06;99766.84;;;11.69;93.71
13869;BME280;7004;48.206;16.402;2023-04-21T06:16:33;99771.41;;;11.54;92.88
13869;BME280;7004;48.206;16.402;2023-04-21T06:18:59;99771.41;;;11.80;92.09
13869;BME280;7004;48.206;16.402;2023-04-21T06:21:25;99764.44;;;11.79;92.43
13869;BME280;7004;48.206;16.402;2023-04-21T06:23:51;99770.84;;;11.89;91.54
13869;BME280;7004;48.206;16.402;2023-04-21T06:26:17;99768.75;;;12.07;91.34
13869;BME280;7004;48.206;16.402;2023-04-21T06:28:44;99765.13;;;12.08;90.93
13869;BME280;7004;48.206;16.402;2023-04-21T06:31:10;99763.75;;;12.02;91.23
13869;BME280;7004;48.206;16.402;2023-04-21T06:33:40;99764.91;;;12.24;88.55
13869;BME280;7004;48.206;16.402;2023-04-21T06:36:07;99767.47;;;12.26;86.88
13869;BME280;7004;48.206;16.402;2023-04-21T06:38:33;99769.63;;;12.57;86.02
13869;BME280;7004;48.206;16.402;2023-04-21T06:40:59;99774.03;;;12.33;87.74
13869;BME280;7004;48.206;16.402;2023-04-21T06:43:25;99771.16;;;12.49;86.92
13869;BME280;7004;48.206;16.402;2023-04-21T06:45:51;99764.81;;;12.38;88.03
13869;BME280;7004;48.206;16.402;2023-04-21T06:48:18;99773.50;;;12.90;83.83
13869;BME280;7004;48.206;16.402;2023-04-21T06:50:44;99775.81;;;14.02;80.41
13869;BME280;7004;48.206;16.402;2023-04-21T06:53:11;99771.97;;;14.51;77.13
13869;BME280;7004;48.206;16.402;2023-04-21T06:55:37;99768.22;;;14.20;76.98
13869;BME280;7004;48.206;16.402;2023-04-21T06:58:03;99771.75;;;14.66;75.86
13869;BME280;7004;48.206;16.402;2023-04-21T07:00:29;99774.78;;;14.72;69.45
13869;BME280;7004;48.206;16.402;2023-04-21T07:02:55;99774.50;;;14.41;71.89
13869;BME280;7004;48.206;16.402;2023-04-21T07:05:21;99783.84;;;14.70;70.40
13869;BME280;7004;48.206;16.402;2023-04-21T07:07:48;99771.31;;;15.04;69.23
13869;BME280;7004;48.206;16.402;2023-04-21T07:10:14;99771.00;;;15.73;64.19
13869;BME280;7004;48.206;16.402;2023-04-21T07:12:45;99768.38;;;15.50;65.30
13869;BME280;7004;48.206;16.402;2023-04-21T07:15:11;99774.09;;;15.14;64.87
13869;BME280;7004;48.206;16.402;2023-04-21T07:17:38;99781.41;;;14.78;65.76
13869;BME280;7004;48.206;16.402;2023-04-21T07:20:05;99778.25;;;15.71;62.15
13869;BME280;7004;48.206;16.402;2023-04-21T07:22:32;99776.66;;;16.31;58.84
13869;BME280;7004;48.206;16.402;2023-04-21T07:24:59;99776.25;;;16.05;59.45
13869;BME280;7004;48.206;16.402;2023-04-21T07:27:25;99776.91;;;16.49;58.79
13869;BME280;7004;48.206;16.402;2023-04-21T07:29:51;99773.19;;;16.10;60.04
13869;BME280;7004;48.206;16.402;2023-04-21T07:32:17;99772.72;;;16.87;58.24
13869;BME280;7004;48.206;16.402;2023-04-21T07:34:43;99768.31;;;17.85;56.22
13869;BME280;7004;48.206;16.402;2023-04-21T07:37:11;99768.03;;;17.39;54.96
13869;BME280;7004;48.206;16.402;2023-04-21T07:39:37;99773.06;;;17.23;57.43
13869;BME280;7004;48.206;16.402;2023-04-21T07:42:03;99772.09;;;17.24;55.56
13869;BME280;7004;48.206;16.402;2023-04-21T07:44:33;99769.72;;;17.79;51.82
13869;BME280;7004;48.206;16.402;2023-04-21T07:47:00;99762.81;;;17.86;53.21
13869;BME280;7004;48.206;16.402;2023-04-21T07:49:26;99768.25;;;18.14;52.98
13869;BME280;7004;48.206;16.402;2023-04-21T07:51:52;99773.50;;;17.38;54.45
13869;BME280;7004;48.206;16.402;2023-04-21T07:54:19;99765.78;;;18.40;50.32
13869;BME280;7004;48.206;16.402;2023-04-21T07:56:45;99767.97;;;18.92;49.58
13869;BME280;7004;48.206;16.402;2023-04-21T07:59:11;99774.13;;;19.02;48.10
13869;BME280;7004;48.206;16.402;2023-04-21T08:01:37;99770.72;;;18.72;50.28
13869;BME280;7004;48.206;16.402;2023-04-21T08:04:04;99769.28;;;17.55;53.25
13869;BME280;7004;48.206;16.402;2023-04-21T08:06:30;99771.16;;;18.30;50.83
13869;BME280;7004;48.206;16.402;2023-04-21T08:08:58;99769.28;;;18.03;50.21
13869;BME280;7004;48.206;16.402;2023-04-21T08:11:24;99772.81;;;17.94;49.97
13869;BME280;7004;48.206;16.402;2023-04-21T08:13:50;99767.03;;;19.47;48.89
13869;BME280;7004;48.206;16.402;2023-04-21T08:16:17;99770.84;;;19.62;47.08
13869;BME280;7004;48.206;16.402;2023-04-21T08:18:43;99771.34;;;19.12;47.46
13869;BME280;7004;48.206;16.402;2023-04-21T08:21:09;99778.38;;;18.20;48.18
13869;BME280;7004;48.206;16.402;2023-04-21T08:23:35;99774.56;;;18.97;48.42
13869;BME280;7004;48.206;16.402;2023-04-21T08:26:02;99772.88;;;18.59;47.62
13869;BME280;7004;48.206;16.402;2023-04-21T08:28:29;99766.38;;;18.34;48.13
13869;BME280;7004;48.206;16.402;2023-04-21T08:30:56;99771.41;;;17.51;50.04
13869;BME280;7004;48.206;16.402;2023-04-21T08:33:22;99767.56;;;17.05;51.33
13869;BME280;7004;48.206;16.402;2023-04-21T08:35:48;99762.09;;;17.94;49.66
13869;BME280;7004;48.206;16.402;2023-04-21T08:38:14;99757.63;;;17.36;49.90
13869;BME280;7004;48.206;16.402;2023-04-21T08:40:40;99762.34;;;18.10;48.74
13869;BME280;7004;48.206;16.402;2023-04-21T08:43:07;99756.13;;;18.57;47.09
13869;BME280;7004;48.206;16.402;2023-04-21T08:45:34;99757.44;;;20.24;44.23
13869;BME280;7004;48.206;16.402;2023-04-21T08:48:01;99753.50;;;19.92;45.61
13869;BME280;7004;48.206;16.402;2023-04-21T08:50:31;99746.75;;;20.06;43.83
13869;BME280;7004;48.206;16.402;2023-04-21T08:52:58;99751.16;;;20.15;43.41
13869;BME280;7004;48.206;16.402;2023-04-21T08:55:29;99747.69;;;19.97;43.22
13869;BME280;7004;48.206;16.402;2023-04-21T08:57:55;99751.88;;;19.73;44.10
13869;BME280;7004;48.206;16.402;2023-04-21T09:00:22;99749.34;;;19.18;43.66
13869;BME280;7004;48.206;16.402;2023-04-21T09:02:56;99748.59;;;18.43;44.61
13869;BME280;7004;48.206;16.402;2023-04-21T09:05:28;99749.03;;;18.38;44.28
13869;BME280;7004;48.206;16.402;2023-04-21T09:08:15;99740.47;;;19.35;42.54
13869;BME280;7004;48.206;16.402;2023-04-21T09:10:49;99746.66;;;19.18;43.72
13869;BME280;7004;48.206;16.402;2023-04-21T09:13:16;99738.59;;;19.00;45.50
13869;BME280;7004;48.206;16.402;2023-04-21T09:15:46;99750.06;;;18.27;45.07
13869;BME280;7004;48.206;16.402;2023-04-21T09:18:18;99741.22;;;19.10;42.50
13869;BME280;7004;48.206;16.402;2023-04-21T09:20:48;99734.69;;;18.94;41.63
13869;BME280;7004;48.206;16.402;2023-04-21T09:23:14;99743.47;;;18.12;42.05
13869;BME280;7004;48.206;16.402;2023-04-21T09:25:43;99736.94;;;18.34;42.11
13869;BME280;7004;48.206;16.402;2023-04-21T09:28:13;99726.06;;;18.36;39.13
13869;BME280;7004;48.206;16.402;2023-04-21T09:30:41;99737.06;;;17.95;40.05
13869;BME280;7004;48.206;16.402;2023-04-21T09:33:15;99741.31;;;18.63;39.94
13869;BME280;7004;48.206;16.402;2023-04-21T09:35:44;99736.38;;;17.54;40.24
13869;BME280;7004;48.206;16.402;2023-04-21T09:38:11;99739.56;;;17.97;40.47
13869;BME280;7004;48.206;16.402;2023-04-21T09:40:38;99739.72;;;17.76;40.81
13869;BME280;7004;48.206;16.402;2023-04-21T09:43:06;99735.34;;;17.94;41.15
13869;BME280;7004;48.206;16.402;2023-04-21T09:45:33;99723.50;;;18.06;39.20
13869;BME280;7004;48.206;16.402;2023-04-21T09:48:00;99719.63;;;19.11;38.44
13869;BME280;7004;48.206;16.402;2023-04-21T09:50:28;99718.16;;;19.97;37.73
13869;BME280;7004;48.206;16.402;2023-04-21T09:52:56;99719.19;;;20.56;38.61
13869;BME280;7004;48.206;16.402;2023-04-21T09:55:27;99709.56;;;20.54;36.99
13869;BME280;7004;48.206;16.402;2023-04-21T09:57:58;99708.00;;;19.38;38.03
13869;BME280;7004;48.206;16.402;2023-04-21T10:00:27;99704.41;;;20.26;33.84
13869;BME280;7004;48.206;16.402;2023-04-21T10:02:56;99717.97;;;20.93;33.44
13869;BME280;7004;48.206;16.402;2023-04-21T10:05:23;99710.03;;;19.09;34.25
13869;BME280;7004;48.206;16.402;2023-04-21T10:07:49;99709.50;;;20.03;34.89
13869;BME280;7004;48.206;16.402;2023-04-21T10:10:28;99698.41;;;19.54;33.19
13869;BME280;7004;48.206;16.402;2023-04-21T10:12:59;99703.75;;;20.24;31.27
13869;BME280;7004;48.206;16.402;2023-04-21T10:18:16;99698.78;;;19.59;31.61
13869;BME280;7004;48.206;16.402;2023-04-21T10:21:00;99692.91;;;19.63;30.78
13869;BME280;7004;48.206;16.402;2023-04-21T10:23:45;99694.63;;;19.82;31.91
13869;BME280;7004;48.206;16.402;2023-04-21T10:26:33;99698.94;;;19.04;33.12
13869;BME280;7004;48.206;16.402;2023-04-21T10:31:36;99688.81;;;20.21;33.01
13869;BME280;7004;48.206;16.402;2023-04-21T10:39:33;99672.56;;;20.57;32.82
13869;BME280;7004;48.206;16.402;2023-04-21T10:47:43;99661.22;;;21.12;30.42
13869;BME280;7004;48.206;16.402;2023-04-21T10:52:38;99651.97;;;21.80;30.97
13869;BME280;7004;48.206;16.402;2023-04-21T10:55:06;99656.72;;;21.62;30.90
13869;BME280;7004;48.206;16.402;2023-04-21T10:57:34;99650.66;;;21.60;29.85
13869;BME280;7004;48.206;16.402;2023-04-21T11:00:01;99654.34;;;20.93;31.26
13869;BME280;7004;48.206;16.402;2023-04-21T11:02:33;99648.97;;;21.75;30.66
13869;BME280;7004;48.206;16.402;2023-04-21T11:05:00;99637.16;;;22.40;29.38
13869;BME280;7004;48.206;16.402;2023-04-21T11:07:27;99634.78;;;22.45;29.97
13869;BME280;7004;48.206;16.402;2023-04-21T11:10:03;99648.66;;;21.62;31.61
13869;BME280;7004;48.206;16.402;2023-04-21T11:12:36;99646.63;;;21.15;32.14
13869;BME280;7004;48.206;16.402;2023-04-21T11:15:09;99632.81;;;21.75;31.56
13869;BME280;7004;48.206;16.402;2023-04-21T11:17:36;99637.66;;;21.88;31.53
13869;BME280;7004;48.206;16.402;2023-04-21T11:20:08;99641.25;;;21.48;30.86
13869;BME280;7004;48.206;16.402;2023-04-21T11:22:36;99644.13;;;21.38;30.33
13869;BME280;7004;48.206;16.402;2023-04-21T11:25:03;99624.03;;;22.68;30.16
13869;BME280;7004;48.206;16.402;2023-04-21T11:27:30;99629.78;;;22.34;28.28
13869;BME280;7004;48.206;16.402;2023-04-21T11:29:56;99626.47;;;21.27;28.61
13869;BME280;7004;48.206;16.402;2023-04-21T11:32:23;99626.28;;;22.57;27.58
13869;BME280;7004;48.206;16.402;2023-04-21T11:34:49;99622.47;;;23.05;26.74
13869;BME280;7004;48.206;16.402;2023-04-21T11:37:24;99627.97;;;22.18;26.46
13869;BME280;7004;48.206;16.402;2023-04-21T11:40:00;99624.03;;;21.90;26.92
13869;BME280;7004;48.206;16.402;2023-04-21T11:42:26;99624.31;;;22.11;27.21
13869;BME280;7004;48.206;16.402;2023-04-21T11:44:54;99632.34;;;21.55;27.70
13869;BME280;7004;48.206;16.402;2023-04-21T11:47:26;99607.63;;;23.24;25.59
13869;BME280;7004;48.206;16.402;2023-04-21T11:49:59;99629.75;;;21.87;27.82
13869;BME280;7004;48.206;16.402;2023-04-21T11:52:29;99617.91;;;22.52;27.14
13869;BME280;7004;48.206;16.402;2023-04-21T11:57:28;99628.72;;;21.96;25.34
13869;BME280;7004;48.206;16.402;2023-04-21T12:00:01;99622.00;;;21.92;27.20
13869;BME280;7004;48.206;16.402;2023-04-21T12:02:30;99614.59;;;22.73;25.76
13869;BME280;7004;48.206;16.402;2023-04-21T12:05:03;99610.44;;;22.31;26.15
13869;BME280;7004;48.206;16.402;2023-04-21T12:07:35;99609.19;;;22.96;26.10
13869;BME280;7004;48.206;16.402;2023-04-21T12:10:18;99590.09;;;22.28;27.21
13869;BME280;7004;48.206;16.402;2023-04-21T12:12:46;99602.38;;;21.75;27.38
13869;BME280;7004;48.206;16.402;2023-04-21T12:15:18;99600.25;;;22.49;26.49
13869;BME280;7004;48.206;16.402;2023-04-21T12:17:50;99599.88;;;22.83;26.04
13869;BME280;7004;48.206;16.402;2023-04-21T12:20:20;99601.25;;;22.09;27.27
13869;BME280;7004;48.206;16.402;2023-04-21T12:22:48;99593.28;;;21.76;28.24
13869;BME280;7004;48.206;16.402;2023-04-21T12:25:15;99598.72;;;21.35;28.12
13869;BME280;7004;48.206;16.402;2023-04-21T12:27:51;99587.28;;;22.76;27.47
13869;BME280;7004;48.206;16.402;2023-04-21T12:30:21;99585.97;;;21.53;28.00
13869;BME280;7004;48.206;16.402;2023-04-21T12:32:47;99583.53;;;23.46;26.88
13869;BME280;7004;48.206;16.402;2023-04-21T12:35:13;99586.25;;;22.54;27.19
13869;BME280;7004;48.206;16.402;2023-04-21T12:37:39;99590.72;;;22.38;27.30
13869;BME280;7004;48.206;16.402;2023-04-21T12:40:06;99586.66;;;22.42;28.52
13869;BME280;7004;48.206;16.402;2023-04-21T12:42:32;99578.69;;;22.26;26.64
13869;BME280;7004;48.206;16.402;2023-04-21T12:44:59;99587.47;;;21.31;28.32
13869;BME280;7004;48.206;16.402;2023-04-21T12:47:26;99584.00;;;22.88;27.77
13869;BME280;7004;48.206;16.402;2023-04-21T12:49:52;99578.75;;;22.41;27.15
13869;BME280;7004;48.206;16.402;2023-04-21T12:52:18;99575.41;;;20.86;28.15
13869;BME280;7004;48.206;16.402;2023-04-21T12:54:44;99584.44;;;20.77;28.78
13869;BME280;7004;48.206;16.402;2023-04-21T12:57:11;99572.69;;;21.11;28.60
13869;BME280;7004;48.206;16.402;2023-04-21T12:59:38;99568.38;;;22.30;27.18
13869;BME280;7004;48.206;16.402;2023-04-21T13:02:05;99564.22;;;23.19;27.65
13869;BME280;7004;48.206;16.402;2023-04-21T13:04:31;99565.72;;;22.53;25.71
13869;BME280;7004;48.206;16.402;2023-04-21T13:06:57;99566.72;;;22.75;27.01
13869;BME280;7004;48.206;16.402;2023-04-21T13:09:23;99572.50;;;22.09;26.18
13869;BME280;7004;48.206;16.402;2023-04-21T13:11:49;99567.28;;;22.47;25.50
13869;BME280;7004;48.206;16.402;2023-04-21T13:14:17;99566.69;;;21.89;25.50
13869;BME280;7004;48.206;16.402;2023-04-21T13:16:43;99567.50;;;20.93;26.27
13869;BME280;7004;48.206;16.402;2023-04-21T13:19:09;99562.47;;;21.39;26.45
13869;BME280;7004;48.206;16.402;2023-04-21T13:21:35;99559.25;;;21.11;26.93
13869;BME280;7004;48.206;16.402;2023-04-21T13:24:02;99553.84;;;21.99;25.94